Bullock, North Carolina
Current Conditions -  °F | °C
As of 3:15 PM on Thursday 23 Oct 2014 (Local Time) from KW63 Reporting Station
Clear Clear  
Wind Chill: 19°   Ceiling: Unl
Heat Index: 19°   Visibility: 10mi
Dew Point:   Wind: 9mph
Humidity: 46%   Direction: 320°NW
Pressure: 29.91"   Gusts: 16mph
Location:  36.49°N, 78.55°W
Report Text: KW63 231915Z AUTO 32008G14KT 290V350 10SM CLR 19/07 A2991 RMK AO1
Loading
Personal Weather Stations






























Interactive Weather Map
Tropical Storm Tracking
New forecast layout! Learn more

10-Day Weather Forecast

Advertisements
Track Severe Weather on mobile